createdAt,value
2019-01-13T00:01:04.298Z,3.57
2019-01-13T00:03:39.212Z,3.17
2019-01-13T00:06:21.692Z,3.57
2019-01-13T00:08:55.287Z,3.70
2019-01-13T00:11:28.464Z,4.07
2019-01-13T00:14:01.690Z,4.43
2019-01-13T00:16:34.966Z,4.37
2019-01-13T00:19:17.427Z,3.47
2019-01-13T00:21:50.476Z,4.27
2019-01-13T00:24:23.806Z,3.77
2019-01-13T00:26:56.991Z,3.40
2019-01-13T00:29:47.018Z,3.43
2019-01-13T00:32:20.219Z,4.63
2019-01-13T00:34:53.487Z,4.23
2019-01-13T00:37:38.670Z,4.10
2019-01-13T00:40:25.686Z,3.73
2019-01-13T00:42:58.883Z,4.07
2019-01-13T00:45:32.008Z,4.83
2019-01-13T00:48:05.321Z,4.23
2019-01-13T00:50:50.320Z,3.33
2019-01-13T00:53:35.492Z,3.77
2019-01-13T00:56:10.145Z,3.90
2019-01-13T00:58:43.358Z,3.00
2019-01-13T01:01:35.196Z,2.73
2019-01-13T01:04:10.228Z,2.53
2019-01-13T01:06:45.428Z,2.60
2019-01-13T01:09:18.857Z,2.83
2019-01-13T01:11:57.950Z,2.30
2019-01-13T01:14:37.547Z,2.03
2019-01-13T01:17:09.425Z,2.20
2019-01-13T01:19:42.527Z,2.17
2019-01-13T01:22:31.727Z,2.33
2019-01-13T01:25:23.483Z,2.43
2019-01-13T01:27:56.977Z,2.03
2019-01-13T01:30:42.791Z,2.40
2019-01-13T01:33:15.973Z,2.00
2019-01-13T01:35:49.269Z,2.27
2019-01-13T01:38:22.338Z,2.00
2019-01-13T01:40:56.870Z,2.07
2019-01-13T01:43:30.639Z,2.20
2019-01-13T01:46:13.779Z,2.00
2019-01-13T01:48:48.538Z,2.50
2019-01-13T01:51:38.970Z,2.10
2019-01-13T01:54:13.239Z,2.37
2019-01-13T01:56:46.820Z,2.53
2019-01-13T01:59:21.021Z,2.43
2019-01-13T02:01:54.814Z,3.10
2019-01-13T02:04:27.958Z,2.60
2019-01-13T02:07:01.683Z,3.00
2019-01-13T02:09:35.309Z,2.77
2019-01-13T02:12:10.141Z,3.73
2019-01-13T02:14:43.724Z,3.20
2019-01-13T02:17:16.938Z,4.17
2019-01-13T02:20:03.202Z,3.40
2019-01-13T02:22:36.712Z,3.63
2019-01-13T02:25:13.451Z,3.87
2019-01-13T02:27:46.947Z,4.10
2019-01-13T02:30:22.358Z,4.00
2019-01-13T02:32:56.435Z,4.07
2019-01-13T02:35:43.293Z,3.97
2019-01-13T02:38:24.232Z,3.70
2019-01-13T02:40:58.495Z,3.70
2019-01-13T02:43:36.173Z,3.87
2019-01-13T02:46:09.744Z,3.23
2019-01-13T02:48:42.997Z,3.07
2019-01-13T02:51:17.732Z,4.10
2019-01-13T02:53:50.988Z,3.70
2019-01-13T02:56:44.013Z,3.43
2019-01-13T02:59:17.620Z,3.30
2019-01-13T03:01:51.137Z,3.27
2019-01-13T03:04:24.619Z,3.40
2019-01-13T03:06:58.423Z,3.20
2019-01-13T03:09:31.628Z,3.20
2019-01-13T03:12:04.879Z,3.47
2019-01-13T03:14:38.398Z,3.77
2019-01-13T03:17:12.009Z,3.23
2019-01-13T03:19:45.615Z,3.23
2019-01-13T03:22:20.215Z,3.43
2019-01-13T03:25:12.072Z,3.73
2019-01-13T03:27:57.528Z,3.13
2019-01-13T03:30:31.345Z,3.73
2019-01-13T03:33:05.036Z,3.07
2019-01-13T03:35:38.828Z,3.73
2019-01-13T03:38:12.682Z,3.70
2019-01-13T03:41:05.866Z,3.63
2019-01-13T03:43:39.175Z,3.30
2019-01-13T03:46:15.504Z,4.53
2019-01-13T03:48:57.945Z,4.17
2019-01-13T03:51:29.635Z,4.10
2019-01-13T03:54:03.917Z,3.63
2019-01-13T03:56:38.055Z,4.87
2019-01-13T03:59:09.670Z,5.43
2019-01-13T04:01:44.458Z,4.60
2019-01-13T04:04:28.446Z,4.70
2019-01-13T04:07:01.705Z,4.67
2019-01-13T04:09:35.457Z,5.80
2019-01-13T04:12:10.675Z,5.70
2019-01-13T04:14:44.178Z,6.80
2019-01-13T04:17:19.939Z,6.77
2019-01-13T04:19:53.235Z,6.23
2019-01-13T04:22:26.837Z,6.67
2019-01-13T04:25:00.390Z,6.60
2019-01-13T04:27:34.670Z,7.10
2019-01-13T04:30:22.993Z,7.03
2019-01-13T04:32:56.279Z,7.87
2019-01-13T04:35:29.863Z,8.07
2019-01-13T04:38:03.108Z,8.63
2019-01-13T04:40:36.376Z,8.77
2019-01-13T04:43:18.459Z,8.60
2019-01-13T04:45:51.622Z,8.97
2019-01-13T04:48:32.438Z,8.77
2019-01-13T04:51:14.841Z,8.30
2019-01-13T04:53:48.024Z,8.07
2019-01-13T04:56:21.265Z,7.20
2019-01-13T04:59:04.103Z,6.87
2019-01-13T05:01:37.313Z,7.80
2019-01-13T05:04:19.487Z,6.80
2019-01-13T05:06:53.441Z,7.33
2019-01-13T05:09:27.026Z,6.60
2019-01-13T05:12:30.772Z,7.63
2019-01-13T05:15:04.541Z,6.30
2019-01-13T05:17:38.944Z,6.27
2019-01-13T05:20:14.271Z,5.87
2019-01-13T05:22:48.073Z,5.83
2019-01-13T05:25:21.864Z,5.87
2019-01-13T05:27:55.917Z,5.97
2019-01-13T05:30:29.171Z,5.80
2019-01-13T05:33:01.231Z,5.80
2019-01-13T05:35:34.805Z,6.10
2019-01-13T05:38:12.429Z,5.40
2019-01-13T05:40:45.759Z,6.63
2019-01-13T05:43:28.185Z,8.30
2019-01-13T05:46:01.865Z,6.37
2019-01-13T05:48:36.444Z,6.23
2019-01-13T05:51:15.011Z,6.50
2019-01-13T05:53:48.114Z,6.43
2019-01-13T05:56:21.506Z,6.53
2019-01-13T05:59:03.852Z,6.63
2019-01-13T06:01:37.023Z,6.13
2019-01-13T06:04:10.212Z,5.87
2019-01-13T06:06:43.366Z,6.60
2019-01-13T06:09:26.519Z,6.57
2019-01-13T06:12:00.363Z,8.07
2019-01-13T06:14:33.524Z,7.50
2019-01-13T06:17:06.713Z,7.47
2019-01-13T06:20:05.996Z,8.33
2019-01-13T06:22:38.222Z,8.80
2019-01-13T06:25:12.486Z,9.23
2019-01-13T06:27:58.393Z,8.67
2019-01-13T06:30:31.954Z,10.27
2019-01-13T06:33:05.489Z,10.17
2019-01-13T06:35:38.658Z,10.43
2019-01-13T06:38:20.955Z,10.80
2019-01-13T06:40:54.730Z,11.27
2019-01-13T06:43:29.219Z,11.20
2019-01-13T06:46:04.517Z,10.63
2019-01-13T06:48:42.252Z,10.67
2019-01-13T06:51:26.781Z,10.17
2019-01-13T06:54:00.402Z,9.97
2019-01-13T06:56:33.864Z,9.60
2019-01-13T06:59:22.742Z,8.70
2019-01-13T07:02:03.282Z,7.97
2019-01-13T07:04:33.364Z,7.60
2019-01-13T07:07:10.017Z,6.50
2019-01-13T07:09:43.299Z,7.10
2019-01-13T07:12:27.605Z,7.30
2019-01-13T07:15:09.034Z,6.77
2019-01-13T07:17:47.440Z,7.20
2019-01-13T07:20:23.522Z,7.23
2019-01-13T07:22:59.093Z,7.20
2019-01-13T07:25:32.651Z,7.10
2019-01-13T07:28:24.889Z,7.17
2019-01-13T07:31:07.926Z,7.67
2019-01-13T07:33:41.090Z,6.80
2019-01-13T07:36:14.594Z,6.77
2019-01-13T07:38:51.228Z,6.70
2019-01-13T07:41:24.665Z,6.63
2019-01-13T07:43:57.870Z,6.50
2019-01-13T07:46:31.042Z,6.07
2019-01-13T07:49:04.349Z,6.80
2019-01-13T07:51:54.114Z,6.20
2019-01-13T07:54:27.319Z,6.23
2019-01-13T07:57:01.729Z,6.27
2019-01-13T07:59:35.629Z,5.90
2019-01-13T08:02:19.166Z,6.13
2019-01-13T08:04:52.215Z,6.10
2019-01-13T08:07:31.737Z,6.73
2019-01-13T08:10:06.856Z,6.37
2019-01-13T08:12:40.538Z,6.60
2019-01-13T08:15:18.356Z,5.90
2019-01-13T08:17:55.001Z,6.50
2019-01-13T08:20:32.746Z,6.10
2019-01-13T08:23:11.143Z,6.57
2019-01-13T08:25:44.668Z,6.83
2019-01-13T08:28:17.919Z,6.77
2019-01-13T08:30:50.849Z,6.43
2019-01-13T08:33:24.329Z,7.17
2019-01-13T08:35:59.763Z,6.83
2019-01-13T08:38:34.510Z,6.23
2019-01-13T08:41:10.368Z,6.53
2019-01-13T08:43:54.343Z,6.73
2019-01-13T08:46:26.515Z,6.63
2019-01-13T08:49:12.150Z,6.67
2019-01-13T08:51:54.089Z,7.03
2019-01-13T08:54:47.325Z,6.90
2019-01-13T08:57:25.777Z,6.63
2019-01-13T09:00:12.865Z,6.63
2019-01-13T09:02:55.478Z,7.03
2019-01-13T09:05:37.742Z,7.07
2019-01-13T09:08:11.088Z,7.10
2019-01-13T09:10:43.689Z,7.00
2019-01-13T09:13:17.625Z,7.17
2019-01-13T09:16:02.250Z,6.93
2019-01-13T09:18:36.768Z,7.00
2019-01-13T09:21:10.035Z,6.93
2019-01-13T09:23:52.163Z,7.30
2019-01-13T09:26:28.645Z,7.37
2019-01-13T09:29:04.156Z,7.13
2019-01-13T09:31:42.604Z,6.90
2019-01-13T09:34:19.022Z,6.77
2019-01-13T09:36:52.367Z,6.53
2019-01-13T09:39:40.828Z,7.30
2019-01-13T09:42:23.007Z,6.60
2019-01-13T09:44:56.198Z,6.63
2019-01-13T09:47:29.675Z,8.00
2019-01-13T09:50:09.486Z,8.10
2019-01-13T09:52:48.369Z,7.47
2019-01-13T09:55:23.109Z,7.60
2019-01-13T09:58:11.452Z,7.97
2019-01-13T10:01:03.798Z,8.00
2019-01-13T10:04:06.628Z,8.13
2019-01-13T10:06:39.798Z,6.63
2019-01-13T10:09:13.465Z,7.10
2019-01-13T10:11:51.742Z,7.00
2019-01-13T10:14:25.316Z,6.67
2019-01-13T10:16:58.489Z,6.83
2019-01-13T10:19:37.827Z,6.53
2019-01-13T10:22:11.036Z,6.17
2019-01-13T10:24:44.978Z,6.00
2019-01-13T10:27:18.345Z,5.80
2019-01-13T10:29:51.803Z,5.43
2019-01-13T10:32:27.660Z,4.97
2019-01-13T10:35:12.412Z,4.90
2019-01-13T10:37:47.972Z,4.63
2019-01-13T10:40:24.148Z,4.53
2019-01-13T10:42:57.299Z,4.47
2019-01-13T10:45:31.302Z,4.13
2019-01-13T10:48:04.651Z,3.90
2019-01-13T10:50:42.101Z,3.83
2019-01-13T10:53:16.369Z,2.70
2019-01-13T10:56:02.827Z,2.50
2019-01-13T10:58:35.923Z,2.00
2019-01-13T11:01:17.922Z,1.77
2019-01-13T11:03:51.364Z,1.80
2019-01-13T11:06:24.553Z,1.70
2019-01-13T11:09:13.870Z,1.50
2019-01-13T11:11:57.210Z,1.60
2019-01-13T11:14:30.468Z,1.67
2019-01-13T11:17:03.664Z,1.50
2019-01-13T11:19:48.737Z,1.50
2019-01-13T11:22:48.644Z,1.40
2019-01-13T11:25:22.878Z,1.57
2019-01-13T11:28:06.484Z,1.63
2019-01-13T11:30:43.269Z,1.40
2019-01-13T11:33:16.393Z,1.20
2019-01-13T11:35:51.609Z,1.50
2019-01-13T11:38:29.506Z,1.43
2019-01-13T11:41:14.689Z,1.20
2019-01-13T11:44:06.734Z,1.33
2019-01-13T11:46:41.041Z,1.23
2019-01-13T11:49:23.386Z,1.20
2019-01-13T11:52:06.881Z,1.20
2019-01-13T11:54:40.384Z,1.20
2019-01-13T11:57:23.687Z,1.10
2019-01-13T11:59:56.321Z,1.37
2019-01-13T12:02:33.737Z,1.40
2019-01-13T12:05:08.545Z,1.30
2019-01-13T12:07:56.677Z,1.33
2019-01-13T12:10:32.124Z,1.30
2019-01-13T12:13:06.420Z,1.40
2019-01-13T12:15:50.942Z,1.40
2019-01-13T12:18:24.409Z,1.30
2019-01-13T12:20:57.945Z,1.40
2019-01-13T12:23:32.395Z,1.50
2019-01-13T12:26:14.472Z,1.30
2019-01-13T12:28:48.246Z,1.30
2019-01-13T12:31:22.465Z,1.20
2019-01-13T12:34:07.300Z,1.30
2019-01-13T12:36:49.860Z,1.33
2019-01-13T12:39:23.410Z,1.10
2019-01-13T12:41:57.438Z,1.30
2019-01-13T12:44:40.263Z,1.40
2019-01-13T12:47:22.575Z,1.43
2019-01-13T12:49:56.088Z,1.57
2019-01-13T12:52:29.660Z,1.90
2019-01-13T12:55:04.913Z,1.87
2019-01-13T12:57:38.464Z,1.33
2019-01-13T13:00:24.240Z,1.70
2019-01-13T13:02:57.652Z,1.77
2019-01-13T13:05:31.100Z,1.70
2019-01-13T13:08:14.941Z,1.90
2019-01-13T13:10:54.465Z,1.60
2019-01-13T13:13:27.822Z,1.50
2019-01-13T13:16:01.321Z,1.50
2019-01-13T13:18:36.633Z,1.70
2019-01-13T13:21:11.331Z,2.00
2019-01-13T13:23:45.323Z,1.70
2019-01-13T13:26:30.302Z,2.07
2019-01-13T13:29:13.143Z,1.90
2019-01-13T13:31:50.696Z,1.70
2019-01-13T13:34:30.951Z,2.10
2019-01-13T13:37:12.388Z,2.10
2019-01-13T13:39:49.428Z,2.30
2019-01-13T13:42:26.083Z,2.27
2019-01-13T13:44:59.771Z,2.30
2019-01-13T13:47:39.244Z,2.77
2019-01-13T13:50:18.723Z,2.80
2019-01-13T13:53:01.271Z,2.73
2019-01-13T13:55:38.988Z,2.50
2019-01-13T13:58:12.236Z,2.83
2019-01-13T14:01:00.849Z,2.50
2019-01-13T14:03:45.980Z,2.77
2019-01-13T14:06:19.501Z,2.40
2019-01-13T14:08:52.983Z,2.23
2019-01-13T14:11:26.399Z,2.10
2019-01-13T14:13:59.897Z,1.80
2019-01-13T14:16:42.443Z,1.97
2019-01-13T14:19:24.902Z,1.90
2019-01-13T14:22:00.031Z,2.10
2019-01-13T14:24:34.658Z,2.67
2019-01-13T14:27:12.391Z,3.33
2019-01-13T14:29:46.662Z,3.60
2019-01-13T14:32:20.030Z,2.73
2019-01-13T14:35:07.468Z,3.30
2019-01-13T14:37:55.876Z,3.50
2019-01-13T14:40:28.845Z,3.83
2019-01-13T14:43:17.007Z,4.40
2019-01-13T14:46:00.699Z,4.23
2019-01-13T14:48:45.393Z,4.70
2019-01-13T14:51:22.955Z,4.40
2019-01-13T14:54:10.739Z,4.70
2019-01-13T14:56:43.914Z,4.70
2019-01-13T14:59:20.642Z,5.13
2019-01-13T15:02:03.488Z,4.53
2019-01-13T15:04:40.801Z,3.80
2019-01-13T15:07:14.206Z,4.20
2019-01-13T15:09:59.664Z,3.80
2019-01-13T15:12:43.469Z,3.53
2019-01-13T15:15:28.209Z,1.97
2019-01-13T15:18:04.799Z,1.77
2019-01-13T15:20:38.159Z,2.23
2019-01-13T15:23:15.969Z,1.80
2019-01-13T15:26:03.940Z,1.63
2019-01-13T15:28:39.413Z,1.50
2019-01-13T15:31:12.754Z,1.50
2019-01-13T15:33:52.967Z,1.03
2019-01-13T15:36:28.245Z,1.17
2019-01-13T15:39:01.963Z,1.63
2019-01-13T15:41:47.009Z,1.37
2019-01-13T15:44:20.421Z,1.33
2019-01-13T15:46:54.878Z,1.40
2019-01-13T15:49:28.343Z,1.70
2019-01-13T15:52:03.143Z,1.77
2019-01-13T15:54:43.323Z,2.03
2019-01-13T15:57:16.764Z,2.20
2019-01-13T15:59:52.527Z,2.20
2019-01-13T16:02:26.897Z,2.07
2019-01-13T16:05:10.929Z,2.30
2019-01-13T16:07:46.953Z,1.70
2019-01-13T16:10:21.810Z,1.60
2019-01-13T16:12:53.968Z,1.93
2019-01-13T16:15:33.952Z,2.10
2019-01-13T16:18:05.430Z,1.80
2019-01-13T16:20:43.891Z,2.37
2019-01-13T16:23:29.602Z,2.53
2019-01-13T16:26:12.239Z,2.13
2019-01-13T16:28:45.815Z,2.07
2019-01-13T16:31:19.135Z,1.90
2019-01-13T16:34:00.648Z,2.57
2019-01-13T16:36:35.359Z,2.90
2019-01-13T16:39:09.113Z,2.97
2019-01-13T16:41:45.348Z,3.07
2019-01-13T16:44:19.488Z,2.97
2019-01-13T16:46:52.918Z,4.00
2019-01-13T16:49:26.363Z,2.70
2019-01-13T16:52:08.792Z,2.90
2019-01-13T16:54:43.139Z,3.70
2019-01-13T16:57:16.673Z,3.20
2019-01-13T17:00:14.138Z,4.70
2019-01-13T17:02:48.668Z,2.90
2019-01-13T17:05:25.052Z,3.20
2019-01-13T17:07:58.352Z,3.47
2019-01-13T17:10:38.173Z,3.40
2019-01-13T17:13:11.570Z,3.80
2019-01-13T17:15:47.827Z,4.07
2019-01-13T17:18:21.749Z,3.97
2019-01-13T17:20:56.111Z,4.27
2019-01-13T17:23:36.066Z,3.60
2019-01-13T17:26:12.638Z,3.63
2019-01-13T17:28:55.630Z,3.67
2019-01-13T17:31:32.678Z,3.90
2019-01-13T17:34:21.962Z,3.53
2019-01-13T17:37:02.353Z,3.63
2019-01-13T17:43:16.150Z,3.80
2019-01-13T17:45:56.751Z,4.23
2019-01-13T17:48:39.407Z,4.20
2019-01-13T17:51:15.355Z,4.87
2019-01-13T17:58:22.684Z,4.93
2019-01-13T18:01:19.734Z,4.90
2019-01-13T18:03:54.979Z,4.70
2019-01-13T18:06:29.033Z,5.93
2019-01-13T18:09:01.740Z,5.40
2019-01-13T18:11:36.723Z,5.33
2019-01-13T18:14:20.112Z,4.70
2019-01-13T18:16:54.280Z,6.00
2019-01-13T18:19:28.585Z,5.20
2019-01-13T18:22:03.313Z,4.47
2019-01-13T18:24:39.901Z,4.60
2019-01-13T18:27:14.155Z,5.73
2019-01-13T18:29:50.379Z,4.23
2019-01-13T18:32:31.017Z,4.73
2019-01-13T18:35:14.288Z,5.07
2019-01-13T18:37:49.394Z,5.10
2019-01-13T18:40:22.707Z,4.43
2019-01-13T18:43:07.873Z,5.30
2019-01-13T18:45:42.835Z,5.20
2019-01-13T18:48:22.921Z,4.50
2019-01-13T18:50:56.432Z,4.60
2019-01-13T18:53:31.312Z,4.57
2019-01-13T18:56:19.521Z,4.73
2019-01-13T18:58:54.034Z,4.97
2019-01-13T19:01:28.784Z,4.57
2019-01-13T19:04:03.287Z,4.67
2019-01-13T19:06:36.865Z,3.90
2019-01-13T19:09:20.693Z,4.67
2019-01-13T19:11:54.491Z,4.80
2019-01-13T19:14:38.452Z,4.53
2019-01-13T19:17:25.772Z,4.50
2019-01-13T19:20:24.458Z,4.70
2019-01-13T19:26:24.939Z,4.53
2019-01-13T19:29:07.913Z,5.63
2019-01-13T19:31:43.503Z,4.00
2019-01-13T19:34:20.051Z,5.57
2019-01-13T19:37:11.134Z,4.23
2019-01-13T19:39:47.225Z,3.87
2019-01-13T19:42:33.052Z,3.47
2019-01-13T19:45:13.433Z,3.70
2019-01-13T19:47:55.929Z,3.17
2019-01-13T19:50:47.704Z,2.90
2019-01-13T19:53:31.527Z,3.30
2019-01-13T19:56:12.103Z,3.23
2019-01-13T19:58:46.200Z,3.57
2019-01-13T20:01:51.148Z,3.13
2019-01-13T20:04:34.659Z,3.47
2019-01-13T20:07:08.368Z,3.80
2019-01-13T20:13:37.139Z,3.77
2019-01-13T20:16:26.189Z,4.87
2019-01-13T20:18:59.359Z,4.77
2019-01-13T20:21:32.905Z,4.83
2019-01-13T20:24:06.710Z,5.13
2019-01-13T20:26:38.597Z,5.87
2019-01-13T20:29:11.387Z,6.87
2019-01-13T20:31:54.616Z,6.63
2019-01-13T20:34:28.290Z,5.00
2019-01-13T20:37:01.096Z,6.27
2019-01-13T20:39:34.374Z,5.30
2019-01-13T20:42:07.676Z,6.10
2019-01-13T20:44:51.206Z,6.20
2019-01-13T20:47:24.426Z,5.40
2019-01-13T20:49:57.797Z,5.00
2019-01-13T20:52:33.137Z,5.87
2019-01-13T20:55:08.735Z,5.90
2019-01-13T20:57:51.628Z,5.23
2019-01-13T21:00:25.282Z,6.57
2019-01-13T21:03:09.085Z,4.93
2019-01-13T21:05:43.376Z,5.77
2019-01-13T21:08:18.995Z,5.50
2019-01-13T21:11:08.690Z,5.30
2019-01-13T21:13:52.547Z,6.10
2019-01-13T21:16:26.125Z,5.20
2019-01-13T21:18:58.910Z,4.97
2019-01-13T21:21:34.033Z,4.27
2019-01-13T21:24:08.789Z,4.73
2019-01-13T21:26:42.376Z,4.03
2019-01-13T21:29:16.949Z,4.23
2019-01-13T21:32:01.062Z,4.27
2019-01-13T21:34:34.265Z,4.70
2019-01-13T21:37:08.127Z,4.83
2019-01-13T21:39:41.376Z,3.80
2019-01-13T21:42:15.378Z,4.53
2019-01-13T21:44:50.370Z,3.47
2019-01-13T21:47:22.832Z,4.47
2019-01-13T21:49:57.457Z,4.03
2019-01-13T21:52:30.824Z,4.27
2019-01-13T21:55:04.117Z,4.30
2019-01-13T21:57:38.072Z,4.47
2019-01-13T22:00:15.297Z,4.80
2019-01-13T22:02:49.936Z,4.10
2019-01-13T22:05:23.786Z,4.83
2019-01-13T22:07:56.963Z,4.03
2019-01-13T22:10:39.213Z,4.53
2019-01-13T22:13:12.693Z,5.03
2019-01-13T22:15:47.072Z,3.43
2019-01-13T22:18:21.756Z,4.43
2019-01-13T22:21:05.468Z,3.93
2019-01-13T22:23:40.131Z,4.30
2019-01-13T22:26:14.604Z,4.60
2019-01-13T22:28:47.451Z,5.00
2019-01-13T22:34:18.414Z,5.07
2019-01-13T22:36:53.606Z,5.00
2019-01-13T22:39:39.007Z,4.93
2019-01-13T22:42:13.177Z,4.80
2019-01-13T22:44:55.413Z,6.27
2019-01-13T22:47:28.895Z,4.87
2019-01-13T22:50:02.466Z,4.23
2019-01-13T22:52:36.053Z,5.27
2019-01-13T22:55:09.835Z,4.40
2019-01-13T22:57:43.337Z,4.60
2019-01-13T23:00:33.818Z,5.50
2019-01-13T23:03:07.762Z,5.23
2019-01-13T23:05:40.941Z,4.90
2019-01-13T23:08:14.531Z,5.60
2019-01-13T23:10:48.037Z,5.60
2019-01-13T23:13:30.225Z,6.47
2019-01-13T23:16:12.651Z,4.67
2019-01-13T23:18:46.123Z,5.80
2019-01-13T23:21:19.592Z,5.00
2019-01-13T23:23:51.978Z,5.73
2019-01-13T23:26:27.330Z,5.07
2019-01-13T23:29:00.646Z,5.23
2019-01-13T23:31:34.438Z,5.33
2019-01-13T23:34:07.968Z,4.97
2019-01-13T23:36:41.128Z,5.87
2019-01-13T23:39:15.382Z,4.40
2019-01-13T23:41:48.890Z,5.63
2019-01-13T23:44:22.460Z,5.90
2019-01-13T23:46:55.940Z,5.67
2019-01-13T23:49:28.868Z,4.97
2019-01-13T23:52:03.228Z,5.60
2019-01-13T23:54:36.967Z,4.53
2019-01-13T23:57:10.087Z,4.57
2019-01-13T23:59:42.853Z,5.43
